»·PEaware :: N275ND KSNA-KAVX

N275ND :: KSNA-KAVX

FLIGHT INFORMATION

Flight Status: Arrived
Operator: Privately registered:
United States
More flights under this callsign
Pilot: John A. (19135)
Aircraft: CESSNA 172 SKYHAWK
(C172)
More flights by this aircraft type
Origin: KSNA John Wayne-Orange Co
United States
Destination: KAVX Catalina
United States
More flights between these airports :: More routes between these airports
Route: SLI V21 SXC KAVX
File this flight plan on PilotEdge
Remarks: I- Rating
Altitude:
(Current/Filed)
4,000ft
Speed:
(Current/Filed)
115kts
Departed: 06-Oct-19 08:54 AM
Arrived: 06-Oct-19 09:35 AM
Distance/Time
Traveled:
1nm/0:41
Distance/Time
To Go:
Arrived

Flight Plot

Page will automatically refresh every two minutes.

Flight plan parsing failed; only flown route is shown


Map Options




Map Legend


Flown Route
Filed Route
Departure Airport
Arrival Airport
Navaid (VOR, NDB)
Fix

Horizontal Profiles

Position Reports

Time Latitude Longitude Heading Altitude Ground
Speed
06-Oct-19 08:32 33.666148 -117.873432 244 60ft 0kts
06-Oct-19 08:33 33.666148 -117.873432 244 60ft 0kts
06-Oct-19 08:35 33.666148 -117.873432 244 60ft 0kts
06-Oct-19 08:36 33.666148 -117.873432 244 60ft 0kts
06-Oct-19 08:37 33.666148 -117.873432 244 60ft 0kts
06-Oct-19 08:38 33.666148 -117.873432 244 60ft 0kts
06-Oct-19 08:39 33.666148 -117.873432 244 60ft 0kts
06-Oct-19 08:40 33.666148 -117.873432 244 60ft 0kts
06-Oct-19 08:41 33.666148 -117.873432 244 60ft 0kts
06-Oct-19 08:42 33.666148 -117.873432 244 60ft 0kts
06-Oct-19 08:43 33.666148 -117.873432 244 60ft 0kts
06-Oct-19 08:44 33.666148 -117.873432 244 60ft 0kts
06-Oct-19 08:45 33.666148 -117.873432 244 60ft 0kts
06-Oct-19 08:46 33.666148 -117.873432 244 60ft 0kts
06-Oct-19 08:47 33.666148 -117.873432 244 60ft 0kts
06-Oct-19 08:48 33.666148 -117.873432 244 60ft 0kts
06-Oct-19 08:49 33.666641 -117.873298 37 60ft 22kts
06-Oct-19 08:50 33.672394 -117.867961 27 60ft 36kts
06-Oct-19 08:51 33.678705 -117.864171 28 60ft 0kts
06-Oct-19 08:52 33.679973 -117.863616 297 60ft 0kts
06-Oct-19 08:53 33.679777 -117.864379 208 60ft 23kts
06-Oct-19 08:53 33.665812 -117.875854 272 671ft 82kts
06-Oct-19 08:55 33.655853 -117.912534 291 1633ft 99kts
06-Oct-19 08:56 33.679831 -117.931287 2 2388ft 106kts
06-Oct-19 08:56 33.705496 -117.937450 322 2881ft 112kts
06-Oct-19 08:58 33.727232 -117.974729 301 3629ft 110kts
06-Oct-19 08:58 33.743502 -117.998675 315 4024ft 122kts
06-Oct-19 08:59 33.768232 -118.030925 309 3992ft 136kts
06-Oct-19 09:00 33.776480 -118.070331 222 4002ft 135kts
06-Oct-19 09:02 33.737305 -118.093574 222 3922ft 135kts
06-Oct-19 09:02 33.713763 -118.115884 211 4022ft 134kts
06-Oct-19 09:03 33.684897 -118.141155 215 3902ft 122kts
06-Oct-19 09:04 33.659361 -118.167050 206 3918ft 122kts
06-Oct-19 09:05 33.632771 -118.190902 219 4017ft 115kts
06-Oct-19 09:06 33.607623 -118.216866 217 4008ft 119kts
06-Oct-19 09:07 33.579531 -118.238708 217 4027ft 119kts
06-Oct-19 09:08 33.552545 -118.264000 219 3942ft 121kts
06-Oct-19 09:09 33.525303 -118.287308 223 3983ft 120kts
06-Oct-19 09:10 33.497638 -118.312584 221 4000ft 121kts
06-Oct-19 09:11 33.469768 -118.337881 218 4038ft 120kts
06-Oct-19 09:12 33.442611 -118.361614 213 4066ft 120kts
06-Oct-19 09:13 33.414323 -118.386065 222 3697ft 129kts
06-Oct-19 09:14 33.393197 -118.419943 249 3148ft 128kts
06-Oct-19 09:15 33.413698 -118.423018 35 2860ft 127kts
06-Oct-19 09:16 33.414299 -118.422509 35 2849ft 127kts
06-Oct-19 09:17 33.422436 -118.417462 19 2698ft 127kts
06-Oct-19 09:18 33.451791 -118.414281 359 3448ft 122kts
06-Oct-19 09:19 33.484421 -118.401650 32 3429ft 136kts
06-Oct-19 09:20 33.521778 -118.397161 1 3234ft 135kts
06-Oct-19 09:21 33.556809 -118.394869 3 3394ft 125kts
06-Oct-19 09:22 33.586469 -118.414361 318 3326ft 129kts
06-Oct-19 09:23 33.615067 -118.423800 57 3542ft 125kts
06-Oct-19 09:24 33.595116 -118.394690 157 3538ft 127kts
06-Oct-19 09:25 33.561928 -118.391498 208 3504ft 129kts
06-Oct-19 09:26 33.526508 -118.400720 186 3353ft 130kts
06-Oct-19 09:27 33.495659 -118.404197 185 2936ft 88kts
06-Oct-19 09:28 33.471312 -118.409999 190 2376ft 87kts
06-Oct-19 09:29 33.448991 -118.414537 197 2113ft 79kts
06-Oct-19 09:30 33.426465 -118.423137 197 2119ft 98kts
06-Oct-19 09:31 33.426648 -118.413783 29 2127ft 65kts
06-Oct-19 09:32 33.421407 -118.398813 182 1915ft 67kts
06-Oct-19 09:33 33.407256 -118.412017 232 1523ft 64kts
06-Oct-19 09:34 33.403644 -118.415193 218 1546ft 8kts
06-Oct-19 09:35 33.403506 -118.415968 297 1551ft 0kts
06-Oct-19 09:36 33.403506 -118.415968 297 1551ft 0kts
06-Oct-19 09:37 33.403506 -118.415968 297 1551ft 0kts
06-Oct-19 09:38 33.403506 -118.415968 297 1551ft 0kts
06-Oct-19 09:39 33.403506 -118.415968 297 1551ft 0kts
06-Oct-19 09:40 33.403506 -118.415968 297 1551ft 0kts
06-Oct-19 09:41 33.666148 -117.873432 244 60ft 0kts

Navigation Log

Ident Type
Flight plan parsing failed, navigation log unavailable